Glory Ocean — 9VDE7 — position and weather

sailwx.info

Track history (hours):
 
Tides and Currents Weather Stations Pressure Air Temp Water Temp Dewpoint Dewpoint Depression Visibility Wind Speed Wind Dir Waves Ship Positions

Glory Ocean

Last reported at 2016-Jul-30 04:33 UTC. Time now 2016-Jul-30 22:34 UTC.
Position N 36°19' E 016°42'.

Length 139 m; draft 6 m.

Type: Cargo ship. MMSI: 564700000.

Date/timePositionNaut miles runAvg speedWind from/ knotsBaromVisibWave heightAir tempDewpointWater temp
2016-Jul-30 04:33N 36°19' E 016°42'4213.0
2016-Jul-30 01:17N 36°21' E 015°50'1613.1
2016-Jul-30 00:05N 36°22' E 015°30'713.0
2016-Jul-29 23:30N 36°23' E 015°21'1212.7
2016-Jul-29 22:33N 36°24' E 015°06'1312.9
2016-Jul-29 21:33N 36°24' E 014°50'1312.7
2016-Jul-29 20:34N 36°25' E 014°35'1312.7
2016-Jul-29 19:33N 36°31' E 014°21'1313.2
2016-Jul-29 18:33N 36°38' E 014°07'1413.9
2016-Jul-29 17:34N 36°45' E 013°52'1514.5
2016-Jul-29 16:34N 36°52' E 013°36'1413.8
2016-Jul-29 15:34N 36°60' E 013°22'1313.1
2016-Jul-29 14:33N 37°06' E 013°07'1313.3
2016-Jul-29 13:33N 37°13' E 012°53'1312.8
2016-Jul-29 12:33N 37°20' E 012°39'1413.1
2016-Jul-29 11:27N 37°27' E 012°24'1213.5
2016-Jul-29 10:33N 37°34' E 012°11'1414.0
2016-Jul-29 09:33N 37°41' E 011°56'1413.6
2016-Jul-29 08:33N 37°48' E 011°41'1313.4
2016-Jul-29 07:33N 37°55' E 011°26'1313.4
2016-Jul-29 06:34N 37°59' E 011°11'1414.0
2016-Jul-29 05:33N 37°59' E 010°53'1413.8
2016-Jul-29 04:33N 37°59' E 010°35'1313.2
2016-Jul-29 03:33N 37°59' E 010°18'1412.9
2016-Jul-29 02:28N 37°58' E 010°01'1212.9
2016-Jul-29 01:33N 37°56' E 009°46'1313.1
2016-Jul-29 00:33N 37°54' E 009°30'1312.8
2016-Jul-28 23:33N 37°51' E 009°14'1312.5
2016-Jul-28 22:33N 37°50' E 008°58'1312.5
2016-Jul-28 21:32N 37°48' E 008°42'1211.6
2016-Jul-28 20:32N 37°46' E 008°28'1211.6
2016-Jul-28 19:32N 37°44' E 008°13'1211.8
2016-Jul-28 18:29N 37°42' E 007°58'19212.6
2016-Jul-28 03:16N 37°11' E 003°59'1312.4
2016-Jul-28 02:13N 37°09' E 003°43'912.9
2016-Jul-28 01:33N 37°08' E 003°33'1312.8
2016-Jul-28 00:33N 37°06' E 003°17'1212.4
2016-Jul-27 23:33N 37°04' E 003°01'1212.1
2016-Jul-27 22:34N 37°02' E 002°47'1312.3
2016-Jul-27 21:30N 36°59' E 002°31'1212.2
2016-Jul-27 20:33N 36°58' E 002°16'1212.4
2016-Jul-27 19:33N 36°56' E 002°01'1312.5
2016-Jul-27 18:34N 36°54' E 001°46'1312.8
2016-Jul-27 17:33N 36°52' E 001°30'1313.0
2016-Jul-27 16:33N 36°49' E 001°14'1313.2
2016-Jul-27 15:32N 36°47' E 000°57'1312.8
2016-Jul-27 14:33N 36°45' E 000°42'1312.7
2016-Jul-27 13:33N 36°43' E 000°26'2713.0
2016-Jul-27 11:26N 36°39' W 000°08'1112.8
2016-Jul-27 10:34N 36°37' W 000°22'1312.9
2016-Jul-27 09:33N 36°35' W 000°38'1412.3
2016-Jul-27 08:26N 36°32' W 000°54'1411.8
2016-Jul-27 07:16N 36°30' W 001°11'811.7
2016-Jul-27 06:33N 36°29' W 001°22'1211.7
2016-Jul-27 05:32N 36°27' W 001°36'1211.5
2016-Jul-27 04:30N 36°25' W 001°51'2512.3
2016-Jul-27 02:29N 36°21' W 002°21'14213.0
2016-Jul-26 15:32N 36°05' W 005°16'6 6.0
2016-Jul-26 14:33N 36°08' W 005°22'1 0.7
2016-Jul-26 13:30N 36°09' W 005°22'0 0.0
2016-Jul-26 12:33N 36°09' W 005°22'0 0.0
2016-Jul-26 11:09N 36°09' W 005°22'0 0.1
2016-Jul-26 10:27N 36°08' W 005°22'0 0.0
2016-Jul-26 09:33N 36°08' W 005°22'0 0.0
2016-Jul-26 08:30N 36°08' W 005°22'0 0.0
2016-Jul-26 07:30N 36°08' W 005°22'3 2.5
2016-Jul-26 06:19N 36°06' W 005°21'4 5.4
2016-Jul-26 05:33N 36°06' W 005°16'4 2.2
2016-Jul-26 03:33N 36°07' W 005°11'3 2.9
2016-Jul-26 02:33N 36°07' W 005°15'1 1.4
2016-Jul-26 01:33N 36°06' W 005°13'1 0.3
2016-Jul-25 23:10N 36°06' W 005°12'711.1
2016-Jul-25 22:34N 36°01' W 005°19'18711.7
2016-Jul-25 06:33N 36°18' W 009°09'1312.2
2016-Jul-25 05:27N 36°22' W 009°25'1112.5
2016-Jul-25 04:33N 36°25' W 009°38'1212.2
2016-Jul-25 03:33N 36°29' W 009°52'1212.5
2016-Jul-25 02:33N 36°34' W 010°07'1212.3
2016-Jul-25 01:33N 36°38' W 010°21'1212.4
2016-Jul-25 00:33N 36°42' W 010°36'1312.7
2016-Jul-24 23:33N 36°46' W 010°51'1212.4
2016-Jul-24 22:33N 36°50' W 011°05'1312.5
2016-Jul-24 21:33N 36°55' W 011°20'1211.9
2016-Jul-24 20:33N 36°58' W 011°34'1212.2
2016-Jul-24 19:33N 37°03' W 011°49'2411.9
2016-Jul-24 17:33N 37°13' W 012°15'1212.3
2016-Jul-24 16:33N 37°20' W 012°28'  
2016-Jul-22 10:09N 40°02' W 025°27'14112.7
2016-Jul-21 23:03N 40°27' W 028°29'1013.0
2016-Jul-21 22:15N 40°29' W 028°42'5013.0
2016-Jul-21 18:24N 40°36' W 029°47'1213.0
2016-Jul-21 17:29N 40°37' W 030°03'6712.8
2016-Jul-21 12:13N 40°47' W 031°31'  
Track history (hours):
 
Tides and Currents Weather Stations Pressure Air Temp Water Temp Dewpoint Dewpoint Depression Visibility Wind Speed Wind Dir Waves Ship Positions

Glory Ocean

Last reported at 2016-Jul-30 04:33 UTC. Time now 2016-Jul-30 22:34 UTC.
Position N 36°19' E 016°42'.

Length 139 m; draft 6 m.

Type: Cargo ship. MMSI: 564700000.

Date/timePositionNaut miles runAvg speedWind from/ knotsBaromVisibWave heightAir tempDewpointWater temp
2016-Jul-30 04:33N 36°19' E 016°42'4213.0
2016-Jul-30 01:17N 36°21' E 015°50'1613.1
2016-Jul-30 00:05N 36°22' E 015°30'713.0
2016-Jul-29 23:30N 36°23' E 015°21'1212.7
2016-Jul-29 22:33N 36°24' E 015°06'1312.9
2016-Jul-29 21:33N 36°24' E 014°50'1312.7
2016-Jul-29 20:34N 36°25' E 014°35'1312.7
2016-Jul-29 19:33N 36°31' E 014°21'1313.2
2016-Jul-29 18:33N 36°38' E 014°07'1413.9
2016-Jul-29 17:34N 36°45' E 013°52'1514.5
2016-Jul-29 16:34N 36°52' E 013°36'1413.8
2016-Jul-29 15:34N 36°60' E 013°22'1313.1
2016-Jul-29 14:33N 37°06' E 013°07'1313.3
2016-Jul-29 13:33N 37°13' E 012°53'1312.8
2016-Jul-29 12:33N 37°20' E 012°39'1413.1
2016-Jul-29 11:27N 37°27' E 012°24'1213.5
2016-Jul-29 10:33N 37°34' E 012°11'1414.0
2016-Jul-29 09:33N 37°41' E 011°56'1413.6
2016-Jul-29 08:33N 37°48' E 011°41'1313.4
2016-Jul-29 07:33N 37°55' E 011°26'1313.4
2016-Jul-29 06:34N 37°59' E 011°11'1414.0
2016-Jul-29 05:33N 37°59' E 010°53'1413.8
2016-Jul-29 04:33N 37°59' E 010°35'1313.2
2016-Jul-29 03:33N 37°59' E 010°18'1412.9
2016-Jul-29 02:28N 37°58' E 010°01'1212.9
2016-Jul-29 01:33N 37°56' E 009°46'1313.1
2016-Jul-29 00:33N 37°54' E 009°30'1312.8
2016-Jul-28 23:33N 37°51' E 009°14'1312.5
2016-Jul-28 22:33N 37°50' E 008°58'1312.5
2016-Jul-28 21:32N 37°48' E 008°42'1211.6
2016-Jul-28 20:32N 37°46' E 008°28'1211.6
2016-Jul-28 19:32N 37°44' E 008°13'1211.8
2016-Jul-28 18:29N 37°42' E 007°58'19212.6
2016-Jul-28 03:16N 37°11' E 003°59'1312.4
2016-Jul-28 02:13N 37°09' E 003°43'912.9
2016-Jul-28 01:33N 37°08' E 003°33'1312.8
2016-Jul-28 00:33N 37°06' E 003°17'1212.4
2016-Jul-27 23:33N 37°04' E 003°01'1212.1
2016-Jul-27 22:34N 37°02' E 002°47'1312.3
2016-Jul-27 21:30N 36°59' E 002°31'1212.2
2016-Jul-27 20:33N 36°58' E 002°16'1212.4
2016-Jul-27 19:33N 36°56' E 002°01'1312.5
2016-Jul-27 18:34N 36°54' E 001°46'1312.8
2016-Jul-27 17:33N 36°52' E 001°30'1313.0
2016-Jul-27 16:33N 36°49' E 001°14'1313.2
2016-Jul-27 15:32N 36°47' E 000°57'1312.8
2016-Jul-27 14:33N 36°45' E 000°42'1312.7
2016-Jul-27 13:33N 36°43' E 000°26'2713.0
2016-Jul-27 11:26N 36°39' W 000°08'1112.8
2016-Jul-27 10:34N 36°37' W 000°22'1312.9
2016-Jul-27 09:33N 36°35' W 000°38'1412.3
2016-Jul-27 08:26N 36°32' W 000°54'1411.8
2016-Jul-27 07:16N 36°30' W 001°11'811.7
2016-Jul-27 06:33N 36°29' W 001°22'1211.7
2016-Jul-27 05:32N 36°27' W 001°36'1211.5
2016-Jul-27 04:30N 36°25' W 001°51'2512.3
2016-Jul-27 02:29N 36°21' W 002°21'14213.0
2016-Jul-26 15:32N 36°05' W 005°16'6 6.0
2016-Jul-26 14:33N 36°08' W 005°22'1 0.7
2016-Jul-26 13:30N 36°09' W 005°22'0 0.0
2016-Jul-26 12:33N 36°09' W 005°22'0 0.0
2016-Jul-26 11:09N 36°09' W 005°22'0 0.1
2016-Jul-26 10:27N 36°08' W 005°22'0 0.0
2016-Jul-26 09:33N 36°08' W 005°22'0 0.0
2016-Jul-26 08:30N 36°08' W 005°22'0 0.0
2016-Jul-26 07:30N 36°08' W 005°22'3 2.5
2016-Jul-26 06:19N 36°06' W 005°21'4 5.4
2016-Jul-26 05:33N 36°06' W 005°16'4 2.2
2016-Jul-26 03:33N 36°07' W 005°11'3 2.9
2016-Jul-26 02:33N 36°07' W 005°15'1 1.4
2016-Jul-26 01:33N 36°06' W 005°13'1 0.3
2016-Jul-25 23:10N 36°06' W 005°12'711.1
2016-Jul-25 22:34N 36°01' W 005°19'18711.7
2016-Jul-25 06:33N 36°18' W 009°09'1312.2
2016-Jul-25 05:27N 36°22' W 009°25'1112.5
2016-Jul-25 04:33N 36°25' W 009°38'1212.2
2016-Jul-25 03:33N 36°29' W 009°52'1212.5
2016-Jul-25 02:33N 36°34' W 010°07'1212.3
2016-Jul-25 01:33N 36°38' W 010°21'1212.4
2016-Jul-25 00:33N 36°42' W 010°36'1312.7
2016-Jul-24 23:33N 36°46' W 010°51'1212.4
2016-Jul-24 22:33N 36°50' W 011°05'1312.5
2016-Jul-24 21:33N 36°55' W 011°20'1211.9
2016-Jul-24 20:33N 36°58' W 011°34'1212.2
2016-Jul-24 19:33N 37°03' W 011°49'2411.9
2016-Jul-24 17:33N 37°13' W 012°15'1212.3
2016-Jul-24 16:33N 37°20' W 012°28'  
2016-Jul-22 10:09N 40°02' W 025°27'14112.7
2016-Jul-21 23:03N 40°27' W 028°29'1013.0
2016-Jul-21 22:15N 40°29' W 028°42'5013.0
2016-Jul-21 18:24N 40°36' W 029°47'1213.0
2016-Jul-21 17:29N 40°37' W 030°03'6712.8
2016-Jul-21 12:13N 40°47' W 031°31'  

Dump ship's entire track history